EGMC/SEN METAR and TAF weather

Enter ICAO airport designator
Station Type Date Time Source
EGMC METAR 2021/09/20 06:20 UTC NOAA

EGMC 200620Z 33006KT 9999 BKN010 14/12 Q1019


Station Type Date Time Source
EGMC Decoded METAR 2021/09/20 06:20 UTC NOAA

Southend-On-Sea , United Kingdom (EGMC) 51-34N 000-42E
Sep 20, 2021 - 02:20 AM EDT / 2021.09.20 0620 UTC
Wind: from the NNW (330 degrees) at 7 MPH (6 KT):0
Visibility: greater than 7 mile(s):0
Sky conditions: mostly cloudy
Temperature: 57 F (14 C)
Dew Point: 53 F (12 C)
Relative Humidity: 87%
Pressure (altimeter): 30.09 in. Hg (1019 hPa)
ob: EGMC 200620Z 33006KT 9999 BKN010 14/12 Q1019
cycle: 6

Station Type Date Time Source
EGMC TAF 2016/04/18 18:00 UTC NOAA

TAF EGMC 181658Z 1818/1903 28008KT 9999 BKN045

Example: see airport list